Time;durP1;ratioP1;P1;durP2;ratioP2;P2;SDS_P1;SDS_P2;PMS_P1;PMS_P2;Temp;Humidity;BMP_temperature;BMP_pressure;BME280_temperature;BME280_humidity;BME280_pressure;Samples;Min_cycle;Max_cycle;Signal;HPM_P1;HPM_P2
2021/10/08 00:00:22;;;;;;;3.07;2.80;;;10.40;99.90;;;;;;5051286;27;20589;-63
2021/10/08 00:02:48;;;;;;;3.37;2.73;;;10.40;99.90;;;;;;5051454;27;20205;-63
2021/10/08 00:05:14;;;;;;;3.40;3.10;;;10.30;99.90;;;;;;5051422;28;20174;-64
2021/10/08 00:07:39;;;;;;;3.87;2.90;;;10.30;99.90;;;;;;5051118;27;20173;-64
2021/10/08 00:10:06;;;;;;;4.43;4.03;;;10.30;99.90;;;;;;5050120;28;20229;-63
2021/10/08 00:12:32;;;;;;;4.05;3.65;;;10.30;99.90;;;;;;5051238;28;20177;-63
2021/10/08 00:14:57;;;;;;;3.60;3.23;;;10.30;99.90;;;;;;5051048;27;20264;-63
2021/10/08 00:17:23;;;;;;;2.37;2.27;;;10.20;99.90;;;;;;5050843;28;20173;-63
2021/10/08 00:19:48;;;;;;;2.80;2.60;;;10.20;99.90;;;;;;5051210;28;20688;-63
2021/10/08 00:22:14;;;;;;;3.20;3.00;;;10.10;99.90;;;;;;5051180;28;20209;-63
2021/10/08 00:24:40;;;;;;;4.83;3.13;;;10.10;99.90;;;;;;5051302;28;20224;-63
2021/10/08 00:27:05;;;;;;;4.03;3.60;;;10.00;99.90;;;;;;5050741;28;20191;-63
2021/10/08 00:29:31;;;;;;;5.53;3.90;;;10.00;99.90;;;;;;5050612;28;20580;-63
2021/10/08 00:31:57;;;;;;;3.57;3.20;;;9.90;99.90;;;;;;5051163;27;20172;-63
2021/10/08 00:34:22;;;;;;;3.57;3.20;;;9.80;99.90;;;;;;5050979;27;20162;-63
2021/10/08 00:36:48;;;;;;;3.40;3.17;;;9.70;99.90;;;;;;5050588;27;20427;-63
2021/10/08 00:39:14;;;;;;;2.87;2.67;;;9.70;99.90;;;;;;5050683;27;20246;-63
2021/10/08 00:41:39;;;;;;;3.03;2.80;;;9.60;99.90;;;;;;5051072;27;20181;-63
2021/10/08 00:44:05;;;;;;;3.97;3.67;;;9.50;99.90;;;;;;5050594;27;20204;-63
2021/10/08 00:46:31;;;;;;;2.90;2.57;;;9.40;99.90;;;;;;5049072;28;20218;-64
2021/10/08 00:48:57;;;;;;;3.23;2.93;;;9.40;99.90;;;;;;5050416;27;20448;-63
2021/10/08 00:51:25;;;;;;;3.30;3.00;;;9.30;99.90;;;;;;5050688;28;20244;-63
2021/10/08 00:53:51;;;;;;;5.72;3.35;;;9.20;99.90;;;;;;5050573;28;20398;-64
2021/10/08 00:56:18;;;;;;;3.90;3.50;;;9.20;99.90;;;;;;5050608;28;20513;-63
2021/10/08 00:58:44;;;;;;;2.78;2.58;;;9.20;99.90;;;;;;5050181;28;20268;-63
2021/10/08 01:01:10;;;;;;;3.63;3.28;;;9.10;99.90;;;;;;5050666;28;20177;-63
2021/10/08 01:03:37;;;;;;;3.80;3.42;;;9.10;99.90;;;;;;5050450;28;20559;-63
2021/10/08 01:06:03;;;;;;;3.83;3.35;;;9.00;99.90;;;;;;5050626;28;20173;-63
2021/10/08 01:08:28;;;;;;;3.33;3.03;;;8.90;99.90;;;;;;5049686;28;20325;-63
2021/10/08 01:10:54;;;;;;;3.70;3.40;;;8.90;99.90;;;;;;5050411;27;20177;-63
2021/10/08 01:13:20;;;;;;;3.77;3.47;;;8.80;99.90;;;;;;5050362;27;20416;-63
2021/10/08 01:15:46;;;;;;;2.93;2.60;;;8.80;99.90;;;;;;5050562;27;20187;-63
2021/10/08 01:18:11;;;;;;;2.97;2.77;;;8.80;99.90;;;;;;5049941;27;20638;-63
2021/10/08 01:20:38;;;;;;;3.13;2.83;;;8.80;99.90;;;;;;5050441;27;20528;-63
2021/10/08 01:23:04;;;;;;;3.60;3.25;;;8.80;99.90;;;;;;5050036;28;20291;-63
2021/10/08 01:25:32;;;;;;;2.70;2.50;;;8.70;99.90;;;;;;5050486;27;20252;-63
2021/10/08 01:27:58;;;;;;;3.90;3.33;;;8.70;99.90;;;;;;5049772;27;20948;-64
2021/10/08 01:30:25;;;;;;;4.32;3.40;;;8.70;99.90;;;;;;5050345;28;20193;-64
2021/10/08 01:32:52;;;;;;;3.85;3.50;;;8.70;99.90;;;;;;5050253;28;20170;-64
2021/10/08 01:35:19;;;;;;;4.65;3.53;;;8.60;99.90;;;;;;5050094;28;20180;-64
2021/10/08 01:37:45;;;;;;;3.10;2.85;;;8.60;99.90;;;;;;5049422;27;20185;-63
2021/10/08 01:40:12;;;;;;;4.95;3.75;;;8.50;99.90;;;;;;5049762;28;20253;-64
2021/10/08 01:42:38;;;;;;;3.55;3.35;;;8.50;99.90;;;;;;5050022;28;20803;-64
2021/10/08 01:45:06;;;;;;;4.17;3.73;;;8.50;99.90;;;;;;5049767;28;20259;-64
2021/10/08 01:47:32;;;;;;;3.25;3.00;;;8.50;99.90;;;;;;5050039;28;20187;-63
2021/10/08 01:49:57;;;;;;;2.20;2.10;;;8.50;99.90;;;;;;5049852;27;20536;-63
2021/10/08 01:52:23;;;;;;;4.23;3.90;;;8.40;99.90;;;;;;5049997;27;20257;-64
2021/10/08 01:54:49;;;;;;;3.40;3.10;;;8.40;99.90;;;;;;5049889;27;20244;-63
2021/10/08 01:57:15;;;;;;;3.17;2.95;;;8.40;99.90;;;;;;5049637;27;20169;-64
2021/10/08 01:59:41;;;;;;;2.88;2.67;;;8.40;99.90;;;;;;5051730;28;20185;-64
2021/10/08 02:02:07;;;;;;;3.90;3.50;;;8.30;99.90;;;;;;5053134;27;20232;-64
2021/10/08 02:04:33;;;;;;;2.93;2.60;;;8.30;99.90;;;;;;5053242;27;20417;-64
2021/10/08 02:06:58;;;;;;;4.57;4.17;;;8.30;99.90;;;;;;5052824;27;20201;-64
2021/10/08 02:09:24;;;;;;;4.23;3.93;;;8.30;99.90;;;;;;5053176;27;20238;-63
2021/10/08 02:11:50;;;;;;;3.80;3.50;;;8.30;99.90;;;;;;5053124;27;20228;-63
2021/10/08 02:14:15;;;;;;;4.13;3.40;;;8.20;99.90;;;;;;5053338;27;20759;-64
2021/10/08 02:16:41;;;;;;;3.67;3.37;;;8.20;99.90;;;;;;5052846;28;20179;-64
2021/10/08 02:19:07;;;;;;;3.87;3.50;;;8.30;99.90;;;;;;5052984;27;20190;-64
2021/10/08 02:21:33;;;;;;;4.20;3.43;;;8.20;99.90;;;;;;5053158;27;20177;-64
2021/10/08 02:23:59;;;;;;;3.45;3.20;;;8.30;99.90;;;;;;5052851;28;20231;-63
2021/10/08 02:26:24;;;;;;;3.77;3.47;;;8.20;99.90;;;;;;5053146;27;20638;-63
2021/10/08 02:28:50;;;;;;;4.13;3.93;;;8.20;99.90;;;;;;5052411;27;20466;-64
2021/10/08 02:31:16;;;;;;;4.87;3.50;;;8.30;99.90;;;;;;5053346;27;20226;-64
2021/10/08 02:33:42;;;;;;;6.60;4.70;;;8.20;99.90;;;;;;5053006;27;20184;-63
2021/10/08 02:36:08;;;;;;;6.00;5.13;;;8.20;99.90;;;;;;5052636;28;20434;-63
2021/10/08 02:38:35;;;;;;;3.05;2.85;;;8.20;99.90;;;;;;5052477;27;20286;-64
2021/10/08 02:41:01;;;;;;;3.90;3.60;;;8.10;99.90;;;;;;5052894;28;20173;-64
2021/10/08 02:43:27;;;;;;;4.17;3.87;;;8.10;99.90;;;;;;5052787;28;20196;-64
2021/10/08 02:45:52;;;;;;;4.22;3.92;;;8.10;99.90;;;;;;5052466;28;20173;-64
2021/10/08 02:48:18;;;;;;;3.00;2.80;;;8.00;99.90;;;;;;5052157;28;20188;-63
2021/10/08 02:50:44;;;;;;;4.20;3.90;;;8.00;99.90;;;;;;5052262;28;20443;-63
2021/10/08 02:53:09;;;;;;;4.30;3.90;;;8.00;99.90;;;;;;5052627;27;20190;-63
2021/10/08 02:55:35;;;;;;;4.10;3.83;;;8.00;99.90;;;;;;5051489;28;20176;-62
2021/10/08 02:58:01;;;;;;;3.33;3.13;;;8.00;99.90;;;;;;5052073;28;20179;-64
2021/10/08 03:00:27;;;;;;;3.70;3.40;;;7.90;99.90;;;;;;5052322;27;20678;-63
2021/10/08 03:02:52;;;;;;;3.70;3.10;;;7.90;99.90;;;;;;5052302;27;20204;-63
2021/10/08 03:05:18;;;;;;;4.40;4.10;;;7.90;99.90;;;;;;5052306;27;20180;-63
2021/10/08 03:07:44;;;;;;;4.87;4.23;;;7.90;99.90;;;;;;5051844;28;20188;-62
2021/10/08 03:10:11;;;;;;;4.80;4.13;;;7.80;99.90;;;;;;5052181;27;20439;-64
2021/10/08 03:12:37;;;;;;;5.25;4.65;;;7.80;99.90;;;;;;5052030;28;20691;-63
2021/10/08 03:15:04;;;;;;;3.95;3.65;;;7.80;99.90;;;;;;5052407;28;20176;-63
2021/10/08 03:17:30;;;;;;;4.10;3.70;;;7.80;99.90;;;;;;5051816;28;20200;-63
2021/10/08 03:19:56;;;;;;;4.33;3.93;;;7.80;99.90;;;;;;5052187;28;20185;-64
2021/10/08 03:22:22;;;;;;;4.57;4.27;;;7.70;99.90;;;;;;5052369;28;20800;-63
2021/10/08 03:24:47;;;;;;;3.10;2.90;;;7.70;99.90;;;;;;5052159;28;20423;-63
2021/10/08 03:27:13;;;;;;;3.40;3.10;;;7.70;99.90;;;;;;5051611;28;20642;-64
2021/10/08 03:29:39;;;;;;;3.30;2.97;;;7.70;99.90;;;;;;5051694;28;20549;-63
2021/10/08 03:32:05;;;;;;;3.90;3.60;;;7.60;99.90;;;;;;5051875;28;20178;-63
2021/10/08 03:34:31;;;;;;;4.85;4.45;;;7.70;99.90;;;;;;5051555;28;20195;-63
2021/10/08 03:37:00;;;;;;;3.10;2.80;;;7.60;99.90;;;;;;5051636;28;20176;-63
2021/10/08 03:39:29;;;;;;;3.58;3.28;;;7.50;99.90;;;;;;5051478;28;20195;-63
2021/10/08 03:41:58;;;;;;;3.00;2.75;;;7.60;99.90;;;;;;5052013;28;20169;-63
2021/10/08 03:44:23;;;;;;;4.50;4.10;;;7.50;99.90;;;;;;5050202;28;20180;-62
2021/10/08 03:46:56;;;;;;;3.30;3.10;;;7.50;99.90;;;;;;5050676;28;20975;-63
2021/10/08 03:49:23;;;;;;;5.65;3.70;;;7.50;99.90;;;;;;5051666;28;20510;-63
2021/10/08 03:51:58;;;;;;;3.65;3.35;;;7.50;99.90;;;;;;5051517;28;20627;-62
2021/10/08 03:54:24;;;;;;;4.70;4.30;;;7.50;99.90;;;;;;5051547;27;20629;-62
2021/10/08 03:56:50;;;;;;;3.67;3.37;;;7.50;99.90;;;;;;5051506;27;20173;-62
2021/10/08 03:59:16;;;;;;;3.47;3.17;;;7.40;99.90;;;;;;5051725;27;20539;-63
2021/10/08 04:01:41;;;;;;;4.32;3.92;;;7.40;99.90;;;;;;5051373;28;20279;-63
2021/10/08 04:04:09;;;;;;;4.00;3.73;;;7.40;99.90;;;;;;5051474;27;20274;-64
2021/10/08 04:06:35;;;;;;;4.18;3.00;;;7.40;99.90;;;;;;5051205;27;20179;-64
2021/10/08 04:09:04;;;;;;;3.58;2.95;;;7.30;99.90;;;;;;5051345;27;20192;-64
2021/10/08 04:11:30;;;;;;;4.05;3.08;;;7.30;99.90;;;;;;5051325;27;20279;-63
2021/10/08 04:13:56;;;;;;;3.13;2.83;;;7.30;99.90;;;;;;5050919;28;20252;-63
2021/10/08 04:16:22;;;;;;;3.55;3.05;;;7.20;99.90;;;;;;5051190;28;20402;-63
2021/10/08 04:18:48;;;;;;;4.50;4.25;;;7.30;99.90;;;;;;5050876;28;20205;-63
2021/10/08 04:21:14;;;;;;;5.20;4.00;;;7.30;99.90;;;;;;5050955;28;20178;-63
2021/10/08 04:23:40;;;;;;;4.30;3.75;;;7.30;99.90;;;;;;5050757;28;20459;-63
2021/10/08 04:26:06;;;;;;;3.83;3.30;;;7.20;99.90;;;;;;5051227;28;20535;-63
2021/10/08 04:28:32;;;;;;;3.30;2.97;;;7.20;99.90;;;;;;5050431;28;20259;-63
2021/10/08 04:30:58;;;;;;;3.77;3.43;;;7.30;99.90;;;;;;5050728;28;20210;-63
2021/10/08 04:33:25;;;;;;;3.95;3.65;;;7.30;99.90;;;;;;5050949;28;20184;-64
2021/10/08 04:35:51;;;;;;;3.95;3.65;;;7.30;99.90;;;;;;5051078;28;20187;-63
2021/10/08 04:38:18;;;;;;;3.47;3.22;;;7.30;99.90;;;;;;5049025;27;20234;-64
2021/10/08 04:40:44;;;;;;;5.05;4.40;;;7.20;99.90;;;;;;5050744;28;20199;-61
2021/10/08 04:43:10;;;;;;;3.53;3.22;;;7.20;99.90;;;;;;5050342;27;20203;-63
2021/10/08 04:45:36;;;;;;;4.40;3.97;;;7.20;99.90;;;;;;5050879;28;20179;-63
2021/10/08 04:48:02;;;;;;;3.80;3.50;;;7.20;99.90;;;;;;5050246;28;20410;-63
2021/10/08 04:50:28;;;;;;;3.63;3.33;;;7.20;99.90;;;;;;5050687;28;20199;-64
2021/10/08 04:52:54;;;;;;;4.07;3.77;;;7.20;99.90;;;;;;5050703;28;20672;-64
2021/10/08 04:55:20;;;;;;;3.65;3.42;;;7.20;99.90;;;;;;5050613;28;20634;-64
2021/10/08 04:57:46;;;;;;;6.55;4.28;;;7.10;99.90;;;;;;5050105;28;20186;-63
2021/10/08 05:00:12;;;;;;;6.77;4.63;;;7.10;99.90;;;;;;5050354;28;20192;-62
2021/10/08 05:02:38;;;;;;;4.05;3.38;;;7.10;99.90;;;;;;5050564;28;20446;-63
2021/10/08 05:05:04;;;;;;;4.20;3.80;;;7.10;99.90;;;;;;5050737;28;20178;-63
2021/10/08 05:07:30;;;;;;;4.40;3.78;;;7.10;99.90;;;;;;5050157;28;20498;-62
2021/10/08 05:10:05;;;;;;;3.97;3.50;;;7.00;99.90;;;;;;5050576;28;20596;-63
2021/10/08 05:12:31;;;;;;;4.03;3.70;;;7.00;99.90;;;;;;5049164;28;20968;-62
2021/10/08 05:14:57;;;;;;;6.10;3.50;;;7.00;99.90;;;;;;5050319;27;20178;-64
2021/10/08 05:17:22;;;;;;;3.93;3.57;;;7.00;99.90;;;;;;5050130;27;20177;-64
2021/10/08 05:19:48;;;;;;;3.60;3.33;;;7.00;99.90;;;;;;5048883;27;20210;-62
2021/10/08 05:22:14;;;;;;;5.17;4.40;;;6.90;99.90;;;;;;5050272;27;20169;-66
2021/10/08 05:24:39;;;;;;;3.90;3.47;;;7.00;99.90;;;;;;5050813;27;20181;-65
2021/10/08 05:27:05;;;;;;;3.73;3.53;;;7.00;99.90;;;;;;5049721;27;20442;-64
2021/10/08 05:29:31;;;;;;;4.53;3.90;;;6.90;99.90;;;;;;5048461;28;20278;-63
2021/10/08 05:31:57;;;;;;;4.37;3.90;;;6.90;99.90;;;;;;5049799;28;20175;-64
2021/10/08 05:34:23;;;;;;;5.00;4.53;;;6.90;99.90;;;;;;5051693;28;20410;-64
2021/10/08 05:36:56;;;;;;;4.30;3.60;;;7.00;99.90;;;;;;5053180;27;20441;-63
2021/10/08 05:39:22;;;;;;;5.15;4.63;;;7.00;99.90;;;;;;5052105;27;20705;-64
2021/10/08 05:41:48;;;;;;;4.20;3.80;;;7.00;99.90;;;;;;5053525;27;20174;-62
2021/10/08 05:44:13;;;;;;;5.33;4.00;;;7.00;99.90;;;;;;5053222;28;20202;-63
2021/10/08 05:46:39;;;;;;;7.17;4.73;;;7.00;99.90;;;;;;5053212;28;20180;-62
2021/10/08 05:49:05;;;;;;;4.53;4.10;;;7.00;99.90;;;;;;5053286;28;20661;-63
2021/10/08 05:51:30;;;;;;;4.43;4.13;;;7.10;99.90;;;;;;5053189;28;20633;-64
2021/10/08 05:53:56;;;;;;;4.97;4.47;;;7.10;99.90;;;;;;5053361;28;20164;-64
2021/10/08 05:56:22;;;;;;;8.47;5.90;;;7.10;99.90;;;;;;5053399;27;20482;-63
2021/10/08 05:58:47;;;;;;;4.90;4.40;;;7.10;99.90;;;;;;5053040;27;20599;-63
2021/10/08 06:01:14;;;;;;;4.47;4.07;;;7.20;99.90;;;;;;5053565;27;20204;-65
2021/10/08 06:03:40;;;;;;;4.70;4.07;;;7.20;99.90;;;;;;5051912;27;20298;-65
2021/10/08 06:06:06;;;;;;;8.10;5.17;;;7.30;99.90;;;;;;5053055;28;20264;-65
2021/10/08 06:08:31;;;;;;;7.67;5.07;;;7.40;99.90;;;;;;5051587;27;20171;-65
2021/10/08 06:10:57;;;;;;;5.90;5.40;;;7.50;99.90;;;;;;5053117;28;20181;-63
2021/10/08 06:13:25;;;;;;;6.33;5.73;;;7.80;99.90;;;;;;5053176;28;20197;-61
2021/10/08 06:15:51;;;;;;;8.95;5.75;;;8.00;99.90;;;;;;5053263;28;20239;-60
2021/10/08 06:18:17;;;;;;;6.63;4.23;;;8.20;99.90;;;;;;5051283;28;20173;-61
2021/10/08 06:20:42;;;;;;;4.83;3.90;;;8.30;99.90;;;;;;5052159;28;20197;-62
2021/10/08 06:23:08;;;;;;;4.80;3.87;;;8.30;99.90;;;;;;5052423;28;20209;-61
2021/10/08 06:25:34;;;;;;;5.00;4.20;;;8.50;99.90;;;;;;5052656;27;20172;-61
2021/10/08 06:27:59;;;;;;;2.97;2.77;;;8.80;99.90;;;;;;5052126;27;20200;-61
2021/10/08 06:30:25;;;;;;;5.10;4.70;;;9.10;99.90;;;;;;5051324;27;20660;-62
2021/10/08 06:32:52;;;;;;;6.67;6.07;;;9.30;99.90;;;;;;5051390;28;20647;-61
2021/10/08 06:35:18;;;;;;;4.90;4.50;;;9.40;99.90;;;;;;5052795;28;20511;-61
2021/10/08 06:37:44;;;;;;;6.00;4.67;;;9.40;99.90;;;;;;5051702;28;20600;-63
2021/10/08 06:40:13;;;;;;;4.72;4.20;;;9.30;99.90;;;;;;5050450;27;20209;-64
2021/10/08 06:42:39;;;;;;;5.07;3.75;;;9.20;99.90;;;;;;5049275;27;20201;-64
2021/10/08 06:45:06;;;;;;;5.95;4.75;;;9.00;99.90;;;;;;5050232;28;20157;-66
2021/10/08 06:47:32;;;;;;;4.32;3.90;;;9.20;99.90;;;;;;5048973;28;20169;-62
2021/10/08 06:49:58;;;;;;;5.03;4.18;;;9.30;99.90;;;;;;5050577;28;20200;-63
2021/10/08 06:52:29;;;;;;;5.45;4.85;;;9.30;99.90;;;;;;5050966;28;20616;-63
2021/10/08 06:54:55;;;;;;;12.85;5.38;;;9.40;99.90;;;;;;5052108;28;20177;-61
2021/10/08 06:57:21;;;;;;;5.17;4.57;;;9.50;99.90;;;;;;5050618;28;20176;-60
2021/10/08 06:59:46;;;;;;;12.80;7.40;;;9.80;99.90;;;;;;5052462;27;20216;-61
2021/10/08 07:02:12;;;;;;;9.90;6.80;;;10.30;99.90;;;;;;5050887;27;20659;-61
2021/10/08 07:04:38;;;;;;;7.07;6.20;;;10.90;99.90;;;;;;5051097;27;20321;-62
2021/10/08 07:07:03;;;;;;;11.83;5.10;;;11.50;99.90;;;;;;5052029;27;20163;-62
2021/10/08 07:09:29;;;;;;;4.17;3.77;;;11.80;99.90;;;;;;5052219;27;20525;-61
2021/10/08 07:11:55;;;;;;;5.73;4.33;;;12.10;99.90;;;;;;5052328;27;20166;-62
2021/10/08 07:14:20;;;;;;;4.80;4.40;;;12.50;99.90;;;;;;5052053;27;20182;-61
2021/10/08 07:16:46;;;;;;;4.00;3.70;;;12.90;99.90;;;;;;5052245;27;20176;-62
2021/10/08 07:19:15;;;;;;;6.87;4.30;;;13.50;99.90;;;;;;5052268;27;20680;-62
2021/10/08 07:21:42;;;;;;;4.13;3.67;;;14.10;99.90;;;;;;5052393;28;20444;-62
2021/10/08 07:24:11;;;;;;;3.23;3.03;;;14.80;99.90;;;;;;5052086;28;20479;-62
2021/10/08 07:26:37;;;;;;;7.77;6.70;;;15.80;99.90;;;;;;5050614;28;20830;-63
2021/10/08 07:29:03;;;;;;;7.33;5.70;;;16.80;99.90;;;;;;5051789;28;20411;-62
2021/10/08 07:31:29;;;;;;;5.67;3.60;;;17.60;99.90;;;;;;5051885;28;20437;-61
2021/10/08 07:33:55;;;;;;;4.33;3.40;;;18.20;99.90;;;;;;5051906;28;20403;-63
2021/10/08 07:36:21;;;;;;;2.90;2.70;;;18.90;99.90;;;;;;5050448;28;20749;-62
2021/10/08 07:38:49;;;;;;;3.93;3.53;;;19.70;99.40;;;;;;5051418;28;20428;-62
2021/10/08 07:41:15;;;;;;;6.20;3.70;;;20.40;96.50;;;;;;5051886;28;20169;-61
2021/10/08 07:43:41;;;;;;;3.90;3.60;;;20.90;95.20;;;;;;5051286;28;20452;-62
2021/10/08 07:46:09;;;;;;;3.63;3.33;;;21.20;94.20;;;;;;5051845;28;20387;-62
2021/10/08 07:48:34;;;;;;;6.40;4.40;;;21.50;94.10;;;;;;5051307;28;20582;-62
2021/10/08 07:51:00;;;;;;;4.13;3.83;;;21.60;92.40;;;;;;5051519;28;20553;-62
2021/10/08 07:53:26;;;;;;;4.90;4.40;;;21.60;92.70;;;;;;5051865;27;20532;-62
2021/10/08 07:55:52;;;;;;;5.83;5.17;;;21.80;92.50;;;;;;5050943;28;20400;-61
2021/10/08 07:58:19;;;;;;;5.77;4.93;;;21.90;91.80;;;;;;5048909;28;20719;-63
2021/10/08 08:00:45;;;;;;;5.83;4.60;;;21.90;91.30;;;;;;5051121;28;20421;-61
2021/10/08 08:03:11;;;;;;;5.10;4.37;;;21.80;91.50;;;;;;5051268;28;20458;-61
2021/10/08 08:05:36;;;;;;;6.00;5.40;;;21.70;91.50;;;;;;5050938;28;20192;-61
2021/10/08 08:08:03;;;;;;;5.70;4.80;;;21.90;91.80;;;;;;5050946;28;20191;-62
2021/10/08 08:10:29;;;;;;;5.93;5.00;;;22.40;90.80;;;;;;5051324;27;20193;-63
2021/10/08 08:12:55;;;;;;;5.63;5.13;;;22.70;90.20;;;;;;5051392;28;20451;-63
2021/10/08 08:15:20;;;;;;;10.60;5.40;;;22.90;90.30;;;;;;5051242;27;20174;-62
2021/10/08 08:17:46;;;;;;;4.30;4.00;;;23.10;89.00;;;;;;5051040;27;20687;-61
2021/10/08 08:20:12;;;;;;;5.20;4.70;;;23.30;88.80;;;;;;5050822;27;20572;-62
2021/10/08 08:22:37;;;;;;;8.20;4.77;;;23.50;87.60;;;;;;5051198;28;20660;-62
2021/10/08 08:25:05;;;;;;;5.63;5.23;;;23.70;86.80;;;;;;5051186;28;20416;-61
2021/10/08 08:27:31;;;;;;;4.77;4.27;;;23.90;86.00;;;;;;5050804;28;20325;-62
2021/10/08 08:29:57;;;;;;;4.63;4.17;;;24.00;86.70;;;;;;5051056;28;20470;-62
2021/10/08 08:32:24;;;;;;;6.07;5.40;;;24.40;84.30;;;;;;5051257;28;20378;-62
2021/10/08 08:34:50;;;;;;;5.43;5.03;;;24.10;83.80;;;;;;5050643;28;20446;-62
2021/10/08 08:37:15;;;;;;;5.27;4.87;;;24.10;84.60;;;;;;5050411;28;20543;-62
2021/10/08 08:39:42;;;;;;;6.27;5.10;;;23.60;84.00;;;;;;5050548;28;20236;-64
2021/10/08 08:42:09;;;;;;;6.67;5.97;;;22.60;85.00;;;;;;5050644;28;20213;-63
2021/10/08 08:44:38;;;;;;;4.97;4.50;;;21.40;88.20;;;;;;5050086;28;20512;-63
2021/10/08 08:47:04;;;;;;;5.33;4.77;;;20.10;90.70;;;;;;5050703;28;20383;-63
2021/10/08 08:49:30;;;;;;;5.23;4.73;;;19.40;92.20;;;;;;5050147;28;20742;-62
2021/10/08 08:51:55;;;;;;;5.47;4.67;;;18.80;93.30;;;;;;5050915;28;20173;-63
2021/10/08 08:54:22;;;;;;;5.33;4.50;;;18.30;94.40;;;;;;5050712;27;20203;-63
2021/10/08 08:56:48;;;;;;;7.30;4.30;;;18.00;95.60;;;;;;5050000;28;20177;-63
2021/10/08 08:59:14;;;;;;;5.30;4.30;;;17.40;95.70;;;;;;5050493;28;20956;-62
2021/10/08 09:01:59;;;;;;;4.23;3.83;;;16.90;97.00;;;;;;5050375;28;20802;-62
2021/10/08 09:04:28;;;;;;;4.67;4.27;;;16.40;98.60;;;;;;5050433;28;20575;-62
2021/10/08 09:06:54;;;;;;;5.03;3.90;;;16.20;99.30;;;;;;5050084;28;20417;-63
2021/10/08 09:09:22;;;;;;;4.80;4.30;;;16.10;99.60;;;;;;5050271;28;20431;-63
2021/10/08 09:11:49;;;;;;;4.87;4.13;;;16.00;99.90;;;;;;5050248;28;20405;-62
2021/10/08 09:14:24;;;;;;;4.80;4.27;;;16.00;99.90;;;;;;5050524;28;20882;-63
2021/10/08 09:17:16;;;;;;;4.63;4.23;;;16.00;99.90;;;;;;5049937;28;20589;-63
2021/10/08 09:19:55;;;;;;;8.43;4.03;;;15.90;99.90;;;;;;5050157;28;20427;-63
2021/10/08 09:22:24;;;;;;;4.87;4.47;;;15.80;99.90;;;;;;5050429;28;20410;-61
2021/10/08 09:24:51;;;;;;;5.03;4.53;;;15.60;99.90;;;;;;5050270;28;20901;-61
2021/10/08 09:27:19;;;;;;;7.60;5.10;;;15.50;99.90;;;;;;5049845;28;20962;-61
2021/10/08 09:29:54;;;;;;;5.27;4.80;;;15.60;99.90;;;;;;5048860;28;20451;-61
2021/10/08 09:32:21;;;;;;;4.60;4.20;;;15.60;99.90;;;;;;5050096;28;20465;-62
2021/10/08 09:34:48;;;;;;;5.47;4.57;;;15.70;99.90;;;;;;5050052;28;20376;-62
2021/10/08 09:37:15;;;;;;;4.90;4.50;;;15.60;99.90;;;;;;5049655;28;20460;-62
2021/10/08 09:39:43;;;;;;;5.20;4.70;;;15.60;99.90;;;;;;5049861;28;20473;-61
2021/10/08 09:42:12;;;;;;;4.80;4.33;;;15.50;99.90;;;;;;5049853;28;20744;-62
2021/10/08 09:44:49;;;;;;;4.13;3.83;;;15.50;99.90;;;;;;5049873;28;20483;-62
2021/10/08 09:47:23;;;;;;;5.20;4.70;;;15.50;99.90;;;;;;5049298;28;20432;-62
2021/10/08 09:49:50;;;;;;;5.20;4.60;;;15.50;99.90;;;;;;5050029;28;20425;-61
2021/10/08 09:52:28;;;;;;;5.50;5.03;;;15.40;99.90;;;;;;5049830;28;20391;-61
2021/10/08 09:54:59;;;;;;;4.10;3.77;;;15.40;99.90;;;;;;5049969;28;20923;-63
2021/10/08 09:57:25;;;;;;;5.40;4.87;;;15.30;99.90;;;;;;5049094;28;20884;-62
2021/10/08 09:59:52;;;;;;;4.43;4.03;;;15.30;99.90;;;;;;5049725;28;20424;-62
2021/10/08 10:02:18;;;;;;;7.00;4.70;;;15.30;99.90;;;;;;5049752;28;20396;-61
2021/10/08 10:04:55;;;;;;;5.17;4.60;;;15.20;99.90;;;;;;5049731;28;20403;-61
2021/10/08 10:07:24;;;;;;;5.50;3.73;;;15.20;99.90;;;;;;5049337;28;20397;-63
2021/10/08 10:09:50;;;;;;;4.50;4.10;;;15.30;99.90;;;;;;5049589;28;20507;-63
2021/10/08 10:12:18;;;;;;;4.40;3.90;;;15.30;99.90;;;;;;5049698;27;20370;-62
2021/10/08 10:14:47;;;;;;;4.60;4.17;;;15.40;99.90;;;;;;5049857;28;20376;-62
2021/10/08 10:17:14;;;;;;;5.27;4.50;;;15.30;99.90;;;;;;5049287;28;20495;-62
2021/10/08 10:19:49;;;;;;;7.97;4.70;;;15.30;99.90;;;;;;5050331;27;20502;-62
2021/10/08 10:22:19;;;;;;;5.23;4.70;;;15.20;99.90;;;;;;5035414;28;20386;-63
2021/10/08 10:24:48;;;;;;;5.10;4.53;;;15.30;99.90;;;;;;5052875;28;20912;-62
2021/10/08 10:27:16;;;;;;;3.63;3.33;;;15.40;99.90;;;;;;5052472;28;20411;-63
2021/10/08 10:29:44;;;;;;;6.30;4.77;;;15.50;99.90;;;;;;5052962;28;20428;-61
2021/10/08 10:32:12;;;;;;;4.40;4.00;;;15.60;99.90;;;;;;5053027;28;20759;-65
2021/10/08 10:34:39;;;;;;;6.37;5.07;;;15.60;99.90;;;;;;5052925;28;20375;-62
2021/10/08 10:37:06;;;;;;;4.47;4.07;;;15.70;99.90;;;;;;5052484;28;20777;-62
2021/10/08 10:39:34;;;;;;;4.70;4.03;;;15.70;99.90;;;;;;5051202;28;20466;-61
2021/10/08 10:42:02;;;;;;;3.77;3.23;;;15.70;99.90;;;;;;5052810;28;20873;-62
2021/10/08 10:44:39;;;;;;;4.70;3.70;;;15.70;99.90;;;;;;5052696;28;20877;-62
2021/10/08 10:50:07;;;;;;;5.10;3.97;;;15.70;99.90;;;;;;5052497;28;20934;-62
2021/10/08 10:52:56;;;;;;;5.03;4.53;;;15.70;99.90;;;;;;5051414;28;20427;-63
2021/10/08 10:55:24;;;;;;;4.50;4.10;;;15.80;99.90;;;;;;5052192;28;20394;-62
2021/10/08 10:57:52;;;;;;;3.60;3.30;;;15.80;99.90;;;;;;5052104;28;20388;-62
2021/10/08 11:00:41;;;;;;;5.77;3.93;;;15.80;99.90;;;;;;5051169;27;20844;-62
2021/10/08 11:03:12;;;;;;;5.63;4.07;;;15.80;99.90;;;;;;5050991;28;20439;-63
2021/10/08 11:05:40;;;;;;;3.47;3.13;;;15.80;99.90;;;;;;5052274;28;20421;-62
2021/10/08 11:08:13;;;;;;;3.90;3.50;;;15.90;99.90;;;;;;5051961;28;20376;-62
2021/10/08 11:10:46;;;;;;;4.40;4.00;;;16.00;99.90;;;;;;5051874;27;20415;-63
2021/10/08 11:13:28;;;;;;;4.53;4.10;;;16.10;99.90;;;;;;5052331;28;20384;-61
2021/10/08 11:15:57;;;;;;;4.60;3.70;;;16.20;99.90;;;;;;5052398;28;20436;-62
2021/10/08 11:18:43;;;;;;;4.27;3.60;;;16.30;99.90;;;;;;5051537;28;20377;-62
2021/10/08 11:21:34;;;;;;;4.63;4.17;;;16.50;99.90;;;;;;5051940;28;20501;-62
2021/10/08 11:24:13;;;;;;;4.33;3.93;;;16.70;99.90;;;;;;5055394;27;20449;-66
2021/10/08 11:26:39;;;;;;;5.00;3.83;;;16.80;99.90;;;;;;5050127;27;20389;-63
2021/10/08 11:29:05;;;;;;;4.20;3.70;;;16.90;99.90;;;;;;5051490;28;20526;-63
2021/10/08 11:31:31;;;;;;;5.50;4.10;;;16.90;99.90;;;;;;5050439;28;20435;-63
2021/10/08 11:33:58;;;;;;;7.63;5.10;;;17.00;99.90;;;;;;5051509;27;20543;-62
2021/10/08 11:36:31;;;;;;;4.70;3.73;;;16.90;99.90;;;;;;5051387;28;20213;-62
2021/10/08 11:39:27;;;;;;;9.33;3.50;;;16.90;99.90;;;;;;5051189;27;20485;-62
2021/10/08 11:42:09;;;;;;;3.63;3.30;;;16.70;99.90;;;;;;5059806;28;20509;-62
2021/10/08 11:44:40;;;;;;;4.83;4.33;;;16.70;99.90;;;;;;5049929;27;20459;-61
2021/10/08 11:49:55;;;;;;;4.93;4.00;;;16.60;99.90;;;;;;5050787;28;20482;-62
2021/10/08 11:52:28;;;;;;;5.07;3.63;;;16.60;99.90;;;;;;5050605;28;20413;-62
2021/10/08 11:55:09;;;;;;;4.97;3.90;;;16.50;99.90;;;;;;5051186;28;20451;-63
2021/10/08 11:57:58;;;;;;;5.17;3.90;;;16.40;99.90;;;;;;5051062;28;20422;-63
2021/10/08 12:00:27;;;;;;;4.67;4.13;;;16.40;99.90;;;;;;5050484;28;20769;-63
2021/10/08 12:02:56;;;;;;;4.87;4.20;;;16.30;99.90;;;;;;5037657;28;20460;-62
2021/10/08 12:05:22;;;;;;;4.30;3.83;;;16.30;99.90;;;;;;5046813;28;20399;-64
2021/10/08 12:07:58;;;;;;;5.07;4.57;;;16.30;99.90;;;;;;5049715;27;20395;-62
2021/10/08 12:10:24;;;;;;;4.13;3.80;;;16.40;99.90;;;;;;5049315;28;20196;-65
2021/10/08 12:12:56;;;;;;;5.20;4.70;;;16.40;99.90;;;;;;5049215;28;20384;-63
2021/10/08 12:15:30;;;;;;;8.07;3.83;;;16.40;99.90;;;;;;5051028;28;20193;-74
2021/10/08 12:17:58;;;;;;;5.50;4.93;;;16.40;99.90;;;;;;5050382;28;20748;-65
2021/10/08 12:20:26;;;;;;;5.43;4.93;;;16.30;99.90;;;;;;5051055;28;20807;-66
2021/10/08 12:23:23;;;;;;;6.57;4.40;;;16.30;99.90;;;;;;5050885;28;20424;-65
2021/10/08 12:25:52;;;;;;;9.30;4.37;;;16.30;99.90;;;;;;5042091;28;20819;-66
2021/10/08 12:28:24;;;;;;;5.27;4.70;;;16.30;99.90;;;;;;5050796;28;20470;-64
2021/10/08 12:31:00;;;;;;;4.40;4.00;;;16.30;99.90;;;;;;5050861;28;20429;-67
2021/10/08 12:33:32;;;;;;;5.90;5.37;;;16.20;99.90;;;;;;5050378;27;20401;-66
2021/10/08 12:36:20;;;;;;;5.17;4.50;;;16.20;99.90;;;;;;5048969;28;20404;-65
2021/10/08 12:39:07;;;;;;;5.10;4.53;;;16.30;99.90;;;;;;5047009;27;20855;-67
2021/10/08 12:42:01;;;;;;;5.60;4.40;;;16.30;99.90;;;;;;5048668;28;20383;-65
2021/10/08 12:44:33;;;;;;;4.60;4.27;;;16.30;99.90;;;;;;5049310;27;20465;-63
2021/10/08 12:47:14;;;;;;;3.80;3.40;;;16.30;99.90;;;;;;5050784;28;20738;-65
2021/10/08 12:49:58;;;;;;;5.90;4.90;;;16.30;99.90;;;;;;5050885;28;20400;-64
2021/10/08 12:52:42;;;;;;;4.87;4.40;;;16.30;99.90;;;;;;5050886;28;20420;-65
2021/10/08 12:55:19;;;;;;;7.67;5.23;;;16.40;99.90;;;;;;5030865;28;20731;-64
2021/10/08 12:58:11;;;;;;;5.30;4.27;;;16.40;99.90;;;;;;5030321;28;20987;-63
2021/10/08 13:00:59;;;;;;;7.57;4.63;;;16.50;99.90;;;;;;5030624;28;20742;-64
2021/10/08 13:03:34;;;;;;;14.40;4.30;;;16.60;99.90;;;;;;5030605;28;20445;-64